createdAt,value
2022-10-05T00:00:28.541Z,10.40
2022-10-05T00:02:55.480Z,10.30
2022-10-05T00:05:26.847Z,10.30
2022-10-05T00:07:54.274Z,10.40
2022-10-05T00:10:21.147Z,10.40
2022-10-05T00:12:48.288Z,10.40
2022-10-05T00:15:17.337Z,10.50
2022-10-05T00:17:44.188Z,10.40
2022-10-05T00:20:24.946Z,10.30
2022-10-05T00:22:57.573Z,10.20
2022-10-05T00:25:24.542Z,10.30
2022-10-05T00:27:58.864Z,10.30
2022-10-05T00:30:27.499Z,10.30
2022-10-05T00:32:59.317Z,10.30
2022-10-05T00:35:28.301Z,10.30
2022-10-05T00:37:55.577Z,10.00
2022-10-05T00:40:50.549Z,10.10
2022-10-05T00:44:00.309Z,10.30
2022-10-05T00:46:37.146Z,10.30
2022-10-05T00:49:07.310Z,10.20
2022-10-05T00:51:37.642Z,10.20
2022-10-05T00:54:26.160Z,10.20
2022-10-05T00:57:05.807Z,10.10
2022-10-05T01:00:00.602Z,10.10
2022-10-05T01:02:42.678Z,10.00
2022-10-05T01:05:34.709Z,9.90
2022-10-05T01:08:32.329Z,9.90
2022-10-05T01:11:43.589Z,9.90
2022-10-05T01:14:19.484Z,9.80
2022-10-05T01:17:02.005Z,10.00
2022-10-05T01:19:47.316Z,10.10
2022-10-05T01:22:18.391Z,9.90
2022-10-05T01:24:51.145Z,9.80
2022-10-05T01:27:45.194Z,9.80
2022-10-05T01:30:17.297Z,10.00
2022-10-05T01:33:05.357Z,10.10
2022-10-05T01:35:49.917Z,10.10
2022-10-05T01:38:45.022Z,10.00
2022-10-05T01:41:43.937Z,10.00
2022-10-05T01:44:14.567Z,9.90
2022-10-05T01:46:44.489Z,9.80
2022-10-05T01:49:45.695Z,9.70
2022-10-05T01:52:18.388Z,9.80
2022-10-05T01:55:01.790Z,9.60
2022-10-05T01:58:03.802Z,9.80
2022-10-05T02:00:32.606Z,9.70
2022-10-05T02:03:08.092Z,9.70
2022-10-05T02:06:15.094Z,9.80
2022-10-05T02:08:46.968Z,9.80
2022-10-05T02:11:14.963Z,9.80
2022-10-05T02:13:53.508Z,9.60
2022-10-05T02:16:20.361Z,9.70
2022-10-05T02:19:02.756Z,9.70
2022-10-05T02:21:31.042Z,9.60
2022-10-05T02:23:58.356Z,9.70
2022-10-05T02:26:25.179Z,9.60
2022-10-05T02:28:58.904Z,9.50
2022-10-05T02:31:40.606Z,9.60
2022-10-05T02:34:20.412Z,9.70
2022-10-05T02:36:47.560Z,9.70
2022-10-05T02:39:36.989Z,9.60
2022-10-05T02:42:13.100Z,9.70
2022-10-05T02:45:09.149Z,9.80
2022-10-05T02:47:46.061Z,9.80
2022-10-05T02:50:27.061Z,9.60
2022-10-05T02:53:00.087Z,9.50
2022-10-05T02:55:41.815Z,9.70
2022-10-05T02:58:16.406Z,9.80
2022-10-05T03:00:47.224Z,9.60
2022-10-05T03:03:30.104Z,9.70
2022-10-05T03:06:04.117Z,9.70
2022-10-05T03:08:53.051Z,9.60
2022-10-05T03:11:34.734Z,9.70
2022-10-05T03:14:19.530Z,9.70
2022-10-05T03:16:53.445Z,9.40
2022-10-05T03:19:29.572Z,9.30
2022-10-05T03:22:01.790Z,9.30
2022-10-05T03:24:34.695Z,9.30
2022-10-05T03:27:07.366Z,9.20
2022-10-05T03:30:05.483Z,9.30
2022-10-05T03:32:58.810Z,9.00
2022-10-05T03:35:35.914Z,9.50
2022-10-05T03:38:11.524Z,9.40
2022-10-05T03:40:51.005Z,9.40
2022-10-05T03:43:42.640Z,9.50
2022-10-05T03:46:18.680Z,9.40
2022-10-05T03:49:01.153Z,9.40
2022-10-05T03:51:29.924Z,9.40
2022-10-05T03:54:06.349Z,9.50
2022-10-05T03:56:56.303Z,9.40
2022-10-05T03:59:28.809Z,9.20
2022-10-05T04:02:05.183Z,9.20
2022-10-05T04:04:33.520Z,9.40
2022-10-05T04:07:00.460Z,9.30
2022-10-05T04:09:43.885Z,9.50
2022-10-05T04:12:27.561Z,9.50
2022-10-05T04:14:59.516Z,9.50
2022-10-05T04:17:39.610Z,9.50
2022-10-05T04:20:15.162Z,9.50
2022-10-05T04:22:49.022Z,9.50
2022-10-05T04:25:22.845Z,9.40
2022-10-05T04:28:13.852Z,9.30
2022-10-05T04:30:42.452Z,9.40
2022-10-05T04:33:10.421Z,9.30
2022-10-05T04:36:02.276Z,9.20
2022-10-05T04:38:47.550Z,9.20
2022-10-05T04:41:51.023Z,9.20
2022-10-05T04:44:41.491Z,9.10
2022-10-05T04:47:35.442Z,9.30
2022-10-05T04:50:21.263Z,9.20
2022-10-05T04:53:06.321Z,9.30
2022-10-05T04:55:53.766Z,9.50
2022-10-05T04:58:48.107Z,9.50
2022-10-05T05:01:33.841Z,9.50
2022-10-05T05:04:22.251Z,9.30
2022-10-05T05:06:58.042Z,9.40
2022-10-05T05:09:43.394Z,9.60
2022-10-05T05:12:24.700Z,9.70
2022-10-05T05:15:00.365Z,9.70
2022-10-05T05:17:33.008Z,9.50
2022-10-05T05:20:21.697Z,9.70
2022-10-05T05:22:59.917Z,9.80
2022-10-05T05:25:55.169Z,9.80
2022-10-05T05:28:28.356Z,9.90
2022-10-05T05:31:05.685Z,9.80
2022-10-05T05:33:42.478Z,9.90
2022-10-05T05:36:26.962Z,10.00
2022-10-05T05:38:58.014Z,10.10
2022-10-05T05:41:45.089Z,10.00
2022-10-05T05:44:17.821Z,10.10
2022-10-05T05:47:10.586Z,10.30
2022-10-05T05:49:46.732Z,9.80
2022-10-05T05:52:25.921Z,10.10
2022-10-05T05:55:02.233Z,10.40
2022-10-05T05:57:41.586Z,10.50
2022-10-05T06:00:15.178Z,10.80
2022-10-05T06:02:46.720Z,10.90
2022-10-05T06:05:44.578Z,11.10
2022-10-05T06:08:18.693Z,11.10
2022-10-05T06:10:53.244Z,11.10
2022-10-05T06:13:24.776Z,11.20
2022-10-05T06:15:58.140Z,11.20
2022-10-05T06:18:25.023Z,11.30
2022-10-05T06:20:54.721Z,11.50
2022-10-05T06:23:28.717Z,11.60
2022-10-05T06:26:14.574Z,11.80
2022-10-05T06:28:41.670Z,11.90
2022-10-05T06:31:30.092Z,11.70
2022-10-05T06:34:23.216Z,12.00
2022-10-05T06:36:51.535Z,12.10
2022-10-05T06:39:31.993Z,12.20
2022-10-05T06:42:32.744Z,12.20
2022-10-05T06:45:25.854Z,12.40
2022-10-05T06:48:04.317Z,12.10
2022-10-05T06:50:38.030Z,12.10
2022-10-05T06:53:11.725Z,12.20
2022-10-05T06:55:50.044Z,12.40
2022-10-05T06:58:27.838Z,12.50
2022-10-05T07:01:16.144Z,12.80
2022-10-05T07:04:17.058Z,13.00
2022-10-05T07:06:59.415Z,13.20
2022-10-05T07:09:35.142Z,13.30
2022-10-05T07:12:26.533Z,13.50
2022-10-05T07:15:28.711Z,13.70
2022-10-05T07:18:17.971Z,14.00
2022-10-05T07:20:56.796Z,14.00
2022-10-05T07:23:34.736Z,14.30
2022-10-05T07:26:07.682Z,14.30
2022-10-05T07:28:47.557Z,14.40
2022-10-05T07:31:20.613Z,14.40
2022-10-05T07:33:51.396Z,14.40
2022-10-05T07:36:54.848Z,14.80
2022-10-05T07:39:55.447Z,15.00
2022-10-05T07:42:24.487Z,14.70
2022-10-05T07:45:01.178Z,14.80
2022-10-05T07:47:38.086Z,15.10
2022-10-05T07:50:26.130Z,15.50
2022-10-05T07:52:57.713Z,15.80
2022-10-05T07:55:33.058Z,16.30
2022-10-05T07:58:05.784Z,16.20
2022-10-05T08:00:50.474Z,16.10
2022-10-05T08:03:45.121Z,16.30
2022-10-05T08:06:15.574Z,16.40
2022-10-05T08:08:54.574Z,16.60
2022-10-05T08:11:33.947Z,17.00
2022-10-05T08:14:16.779Z,17.40
2022-10-05T08:16:43.777Z,17.60
2022-10-05T08:19:24.414Z,17.50
2022-10-05T08:22:06.419Z,18.00
2022-10-05T08:25:02.566Z,18.00
2022-10-05T08:27:35.341Z,18.20
2022-10-05T08:30:04.743Z,18.60
2022-10-05T08:32:50.496Z,18.70
2022-10-05T08:35:40.417Z,18.80
2022-10-05T08:38:18.873Z,18.90
2022-10-05T08:41:10.720Z,20.20
2022-10-05T08:43:49.453Z,20.60
2022-10-05T08:46:40.635Z,20.30
2022-10-05T08:49:13.655Z,21.70
2022-10-05T08:51:58.967Z,21.90
2022-10-05T08:54:37.732Z,22.60
2022-10-05T08:57:26.274Z,23.40
2022-10-05T09:00:02.370Z,24.50
2022-10-05T09:02:58.159Z,25.80
2022-10-05T09:05:51.179Z,26.30
2022-10-05T09:08:51.658Z,25.90
2022-10-05T09:11:25.575Z,26.70
2022-10-05T09:14:17.182Z,28.10
2022-10-05T09:16:50.834Z,28.10
2022-10-05T09:19:51.661Z,28.20
2022-10-05T09:22:40.529Z,27.90
2022-10-05T09:25:21.352Z,28.10
2022-10-05T09:28:03.987Z,28.20
2022-10-05T09:30:57.101Z,28.20
2022-10-05T09:33:27.132Z,29.30
2022-10-05T09:36:32.440Z,28.90
2022-10-05T09:39:18.279Z,29.20
2022-10-05T09:41:45.380Z,28.80
2022-10-05T09:44:18.953Z,29.30
2022-10-05T09:47:04.534Z,28.80
2022-10-05T09:50:28.373Z,29.70
2022-10-05T09:53:48.943Z,29.60
2022-10-05T09:56:24.507Z,29.80
2022-10-05T09:59:16.396Z,29.90
2022-10-05T10:02:06.345Z,30.10
2022-10-05T10:04:54.870Z,30.90
2022-10-05T10:07:33.098Z,31.10
2022-10-05T10:10:22.008Z,30.40
2022-10-05T10:12:57.829Z,29.80
2022-10-05T10:15:36.892Z,28.30
2022-10-05T10:18:19.906Z,28.60
2022-10-05T10:21:01.694Z,28.40
2022-10-05T10:23:47.112Z,29.40
2022-10-05T10:26:25.596Z,29.40
2022-10-05T10:29:14.351Z,29.40
2022-10-05T10:32:01.729Z,30.80
2022-10-05T10:34:57.125Z,30.50
2022-10-05T10:37:23.947Z,31.00
2022-10-05T10:40:19.589Z,30.90
2022-10-05T10:43:07.683Z,30.30
2022-10-05T10:45:37.781Z,29.80
2022-10-05T10:48:05.315Z,29.60
2022-10-05T10:50:47.192Z,29.00
2022-10-05T10:53:32.811Z,29.60
2022-10-05T10:56:15.645Z,30.00
2022-10-05T10:59:11.823Z,30.40
2022-10-05T11:02:14.507Z,29.90
2022-10-05T11:05:19.288Z,30.30
2022-10-05T11:08:02.758Z,30.80
2022-10-05T11:11:00.328Z,31.00
2022-10-05T11:13:33.638Z,31.80
2022-10-05T11:16:24.914Z,31.40
2022-10-05T11:19:16.445Z,30.50
2022-10-05T11:21:43.315Z,30.70
2022-10-05T11:24:28.621Z,31.50
2022-10-05T11:27:08.418Z,31.90
2022-10-05T11:29:52.008Z,31.60
2022-10-05T11:32:37.095Z,31.40
2022-10-05T11:35:41.279Z,30.50
2022-10-05T11:38:46.359Z,30.50
2022-10-05T11:41:37.257Z,29.80
2022-10-05T11:44:43.094Z,30.20
2022-10-05T11:47:18.659Z,30.30
2022-10-05T11:50:18.959Z,30.60
2022-10-05T11:52:57.211Z,31.10
2022-10-05T11:55:26.926Z,31.10
2022-10-05T11:57:57.554Z,31.20
2022-10-05T12:00:28.585Z,31.30
2022-10-05T12:03:15.773Z,30.70
2022-10-05T12:06:13.124Z,32.20
2022-10-05T12:09:04.824Z,33.00
2022-10-05T12:12:02.285Z,33.20
2022-10-05T12:14:40.801Z,32.90
2022-10-05T12:17:22.724Z,33.60
2022-10-05T12:19:55.479Z,34.10
2022-10-05T12:22:41.859Z,34.10
2022-10-05T12:25:17.426Z,33.80
2022-10-05T12:27:46.376Z,33.40
2022-10-05T12:30:24.497Z,33.80
2022-10-05T12:33:14.739Z,32.60
2022-10-05T12:35:48.420Z,30.80
2022-10-05T12:38:28.747Z,30.20
2022-10-05T12:41:07.416Z,29.30
2022-10-05T12:43:34.268Z,27.80
2022-10-05T12:46:10.235Z,27.50
2022-10-05T12:48:56.325Z,27.10
2022-10-05T12:51:45.227Z,26.50
2022-10-05T12:54:24.397Z,25.30
2022-10-05T12:57:01.994Z,24.50
2022-10-05T12:59:44.806Z,24.00
2022-10-05T13:02:43.284Z,24.00
2022-10-05T13:05:10.154Z,23.70
2022-10-05T13:08:10.519Z,23.20
2022-10-05T13:10:47.229Z,23.70
2022-10-05T13:13:25.130Z,23.80
2022-10-05T13:16:16.202Z,23.90
2022-10-05T13:19:14.070Z,24.10
2022-10-05T13:21:49.839Z,24.30
2022-10-05T13:24:24.830Z,24.30
2022-10-05T13:26:54.367Z,24.20
2022-10-05T13:29:33.282Z,24.00
2022-10-05T13:32:03.033Z,22.90
2022-10-05T13:34:48.624Z,22.80
2022-10-05T13:37:21.195Z,23.30
2022-10-05T13:40:14.674Z,23.40
2022-10-05T13:43:05.372Z,23.60
2022-10-05T13:45:40.203Z,24.00
2022-10-05T13:48:31.616Z,24.30
2022-10-05T13:51:32.908Z,24.50
2022-10-05T13:54:15.597Z,24.10
2022-10-05T13:56:49.131Z,23.50
2022-10-05T13:59:36.458Z,24.00
2022-10-05T14:02:08.036Z,24.30
2022-10-05T14:05:05.771Z,24.10
2022-10-05T14:07:48.304Z,24.00
2022-10-05T14:10:18.488Z,23.90
2022-10-05T14:12:45.930Z,23.70
2022-10-05T14:15:19.969Z,23.70
2022-10-05T14:17:47.115Z,23.70
2022-10-05T14:20:17.250Z,23.60
2022-10-05T14:22:44.190Z,23.50
2022-10-05T14:25:16.367Z,23.70
2022-10-05T14:28:02.007Z,23.90
2022-10-05T14:30:30.109Z,23.80
2022-10-05T14:33:06.098Z,23.80
2022-10-05T14:35:52.441Z,23.90
2022-10-05T14:38:35.382Z,23.70
2022-10-05T14:41:17.633Z,23.70
2022-10-05T14:43:56.136Z,23.60
2022-10-05T14:46:28.069Z,23.40
2022-10-05T14:49:37.502Z,23.40
2022-10-05T14:52:29.515Z,23.30
2022-10-05T14:55:01.006Z,23.00
2022-10-05T14:57:53.265Z,23.00
2022-10-05T15:00:20.240Z,23.10
2022-10-05T15:02:59.536Z,23.00
2022-10-05T15:05:43.887Z,22.80
2022-10-05T15:08:31.375Z,22.60
2022-10-05T15:11:05.336Z,22.60
2022-10-05T15:13:37.795Z,22.50
2022-10-05T15:16:28.488Z,22.30
2022-10-05T15:19:27.755Z,22.30
2022-10-05T15:22:18.789Z,22.30
2022-10-05T15:25:01.733Z,22.20
2022-10-05T15:27:34.855Z,22.00
2022-10-05T15:30:09.336Z,22.00
2022-10-05T15:32:38.131Z,21.90
2022-10-05T15:35:23.089Z,22.00
2022-10-05T15:38:03.520Z,21.90
2022-10-05T15:40:33.682Z,21.90
2022-10-05T15:43:04.865Z,21.80
2022-10-05T15:45:37.784Z,21.70
2022-10-05T15:48:16.218Z,21.60
2022-10-05T15:50:56.956Z,21.50
2022-10-05T15:53:40.244Z,21.40
2022-10-05T15:56:20.976Z,21.40
2022-10-05T15:59:19.663Z,21.20
2022-10-05T16:01:55.740Z,21.10
2022-10-05T16:04:48.060Z,21.00
2022-10-05T16:07:39.068Z,21.00
2022-10-05T16:10:12.057Z,20.80
2022-10-05T16:13:04.501Z,20.70
2022-10-05T16:16:15.766Z,20.50
2022-10-05T16:19:01.155Z,20.50
2022-10-05T16:21:46.292Z,20.40
2022-10-05T16:24:19.257Z,20.00
2022-10-05T16:27:03.893Z,19.90
2022-10-05T16:29:36.645Z,19.70
2022-10-05T16:32:19.206Z,19.50
2022-10-05T16:34:58.340Z,19.50
2022-10-05T16:38:12.761Z,19.20
2022-10-05T16:40:47.010Z,19.10
2022-10-05T16:43:38.643Z,18.80
2022-10-05T16:46:27.928Z,18.80
2022-10-05T16:49:17.073Z,18.40
2022-10-05T16:51:52.082Z,18.60
2022-10-05T16:54:37.369Z,18.70
2022-10-05T16:57:13.970Z,18.70
2022-10-05T17:00:03.608Z,18.30
2022-10-05T17:02:36.708Z,18.30
2022-10-05T17:05:39.239Z,18.10
2022-10-05T17:08:21.694Z,17.70
2022-10-05T17:10:51.800Z,17.60
2022-10-05T17:13:39.878Z,17.40
2022-10-05T17:16:25.301Z,17.30
2022-10-05T17:19:12.956Z,17.30
2022-10-05T17:21:45.435Z,17.20
2022-10-05T17:24:12.271Z,17.10
2022-10-05T17:26:56.763Z,17.00
2022-10-05T17:29:28.121Z,16.80
2022-10-05T17:32:03.068Z,16.60
2022-10-05T17:34:34.925Z,16.50
2022-10-05T17:37:35.781Z,16.70
2022-10-05T17:40:30.457Z,16.80
2022-10-05T17:42:58.403Z,16.80
2022-10-05T17:45:34.461Z,16.70
2022-10-05T17:48:03.506Z,16.70
2022-10-05T17:51:00.051Z,16.40
2022-10-05T17:54:03.223Z,16.50
2022-10-05T17:56:55.527Z,16.40
2022-10-05T17:59:45.750Z,16.30
2022-10-05T18:02:40.736Z,16.30
2022-10-05T18:05:14.622Z,16.30
2022-10-05T18:07:42.205Z,16.10
2022-10-05T18:10:12.155Z,16.10
2022-10-05T18:13:00.192Z,16.10
2022-10-05T18:15:27.030Z,16.00
2022-10-05T18:17:56.154Z,16.10
2022-10-05T18:20:29.348Z,16.00
2022-10-05T18:23:09.672Z,16.10
2022-10-05T18:25:49.805Z,16.30
2022-10-05T18:28:39.301Z,16.40
2022-10-05T18:31:09.135Z,16.30
2022-10-05T18:33:49.263Z,16.40
2022-10-05T18:36:28.369Z,16.40
2022-10-05T18:39:06.775Z,16.50
2022-10-05T18:41:44.626Z,16.20
2022-10-05T18:44:14.130Z,16.10
2022-10-05T18:47:23.028Z,16.10
2022-10-05T18:50:32.099Z,16.10
2022-10-05T18:53:36.778Z,15.80
2022-10-05T18:56:12.788Z,15.60
2022-10-05T18:59:02.934Z,15.70
2022-10-05T19:01:45.233Z,15.70
2022-10-05T19:04:30.393Z,15.70
2022-10-05T19:07:16.842Z,15.50
2022-10-05T19:09:47.127Z,15.30
2022-10-05T19:12:29.517Z,15.10
2022-10-05T19:14:56.671Z,15.10
2022-10-05T19:17:50.023Z,15.10
2022-10-05T19:20:35.692Z,15.10
2022-10-05T19:23:02.505Z,15.20
2022-10-05T19:25:40.397Z,15.40
2022-10-05T19:28:22.416Z,15.50
2022-10-05T19:31:10.841Z,15.60
2022-10-05T19:34:16.671Z,15.60
2022-10-05T19:37:14.726Z,15.50
2022-10-05T19:39:49.574Z,15.50
2022-10-05T19:42:25.333Z,15.30
2022-10-05T19:45:32.037Z,15.10
2022-10-05T19:48:19.646Z,15.00
2022-10-05T19:50:59.404Z,15.00
2022-10-05T19:53:38.737Z,15.10
2022-10-05T19:56:25.415Z,15.00
2022-10-05T19:59:01.156Z,14.70
2022-10-05T20:01:34.122Z,14.50
2022-10-05T20:04:01.162Z,14.60
2022-10-05T20:06:30.258Z,14.50
2022-10-05T20:09:02.848Z,14.40
2022-10-05T20:11:31.488Z,14.50
2022-10-05T20:14:01.176Z,14.70
2022-10-05T20:16:47.957Z,14.80
2022-10-05T20:19:36.638Z,14.80
2022-10-05T20:22:28.344Z,14.80
2022-10-05T20:25:06.331Z,14.80
2022-10-05T20:27:50.598Z,14.80
2022-10-05T20:30:19.144Z,14.90
2022-10-05T20:32:49.869Z,14.90
2022-10-05T20:35:18.220Z,14.90
2022-10-05T20:37:45.188Z,14.60
2022-10-05T20:40:12.240Z,14.70
2022-10-05T20:42:39.186Z,14.70
2022-10-05T20:45:06.520Z,14.80
2022-10-05T20:47:33.835Z,14.70
2022-10-05T20:50:05.083Z,14.60
2022-10-05T20:52:31.924Z,14.60
2022-10-05T20:54:58.972Z,14.60
2022-10-05T20:57:26.709Z,14.50
2022-10-05T20:59:53.609Z,14.50
2022-10-05T21:02:20.522Z,14.50
2022-10-05T21:04:47.999Z,14.60
2022-10-05T21:07:16.204Z,14.70
2022-10-05T21:09:43.942Z,14.60
2022-10-05T21:12:11.248Z,14.60
2022-10-05T21:14:38.285Z,14.60
2022-10-05T21:17:06.811Z,14.50
2022-10-05T21:19:40.558Z,14.70
2022-10-05T21:22:08.593Z,14.70
2022-10-05T21:24:39.252Z,14.70
2022-10-05T21:27:06.205Z,14.50
2022-10-05T21:29:34.292Z,14.50
2022-10-05T21:32:01.344Z,14.40
2022-10-05T21:34:28.807Z,14.40
2022-10-05T21:36:55.709Z,14.40
2022-10-05T21:39:22.599Z,14.50
2022-10-05T21:41:49.858Z,14.50
2022-10-05T21:44:16.943Z,14.20
2022-10-05T21:46:43.903Z,14.00
2022-10-05T21:49:11.015Z,13.80
2022-10-05T21:51:38.099Z,13.80
2022-10-05T21:54:15.711Z,13.70
2022-10-05T21:56:44.522Z,13.80
2022-10-05T21:59:12.605Z,13.90
2022-10-05T22:01:39.446Z,13.70
2022-10-05T22:04:06.486Z,13.90
2022-10-05T22:06:34.020Z,13.90
2022-10-05T22:09:01.053Z,14.00
2022-10-05T22:11:29.114Z,14.00
2022-10-05T22:14:02.221Z,14.00
2022-10-05T22:16:31.610Z,14.00
2022-10-05T22:18:58.849Z,14.00
2022-10-05T22:21:25.751Z,13.80
2022-10-05T22:23:52.641Z,13.60
2022-10-05T22:26:20.209Z,13.40
2022-10-05T22:28:47.113Z,13.40
2022-10-05T22:31:14.087Z,13.60
2022-10-05T22:33:41.103Z,13.50
2022-10-05T22:36:08.246Z,13.70
2022-10-05T22:38:35.122Z,13.70
2022-10-05T22:41:02.008Z,13.80
2022-10-05T22:43:29.053Z,13.70
2022-10-05T22:45:56.266Z,13.70
2022-10-05T22:48:23.257Z,13.60
2022-10-05T22:50:50.181Z,13.70
2022-10-05T22:53:17.093Z,13.70
2022-10-05T22:55:43.935Z,13.60
2022-10-05T22:58:10.805Z,13.40
2022-10-05T23:01:01.703Z,13.60
2022-10-05T23:03:24.483Z,13.60
2022-10-05T23:06:00.257Z,13.80
2022-10-05T23:08:27.655Z,13.80
2022-10-05T23:10:54.792Z,13.70
2022-10-05T23:13:22.530Z,13.80
2022-10-05T23:15:49.410Z,13.80
2022-10-05T23:18:16.804Z,13.20
2022-10-05T23:20:43.693Z,12.90
2022-10-05T23:23:10.696Z,13.10
2022-10-05T23:25:37.556Z,13.00
2022-10-05T23:28:04.473Z,12.80
2022-10-05T23:30:31.385Z,13.10
2022-10-05T23:32:58.271Z,12.90
2022-10-05T23:35:25.162Z,12.90
2022-10-05T23:37:52.005Z,12.80
2022-10-05T23:40:18.905Z,13.10
2022-10-05T23:42:46.969Z,13.20
2022-10-05T23:45:14.036Z,13.00
2022-10-05T23:47:41.080Z,13.00
2022-10-05T23:50:08.545Z,13.00
2022-10-05T23:52:36.085Z,13.30
2022-10-05T23:55:04.047Z,13.10
2022-10-05T23:57:31.072Z,13.00
2022-10-05T23:59:57.981Z,13.10
